createdAt,value
2017-08-14T00:01:09.177Z,67.30
2017-08-14T00:03:43.597Z,67.40
2017-08-14T00:06:18.232Z,67.40
2017-08-14T00:08:52.833Z,67.30
2017-08-14T00:11:27.461Z,67.30
2017-08-14T00:14:02.205Z,67.40
2017-08-14T00:16:36.804Z,67.50
2017-08-14T00:19:11.331Z,67.50
2017-08-14T00:21:45.909Z,67.70
2017-08-14T00:24:20.490Z,67.70
2017-08-14T00:26:56.049Z,68.20
2017-08-14T00:29:30.613Z,68.20
2017-08-14T00:32:05.232Z,68.30
2017-08-14T00:34:39.906Z,68.30
2017-08-14T00:37:14.593Z,68.50
2017-08-14T00:39:49.218Z,68.50
2017-08-14T00:42:23.805Z,68.50
2017-08-14T00:44:58.444Z,68.70
2017-08-14T00:47:33.060Z,68.70
2017-08-14T00:50:14.586Z,68.60
2017-08-14T00:52:48.797Z,68.60
2017-08-14T00:55:23.245Z,68.70
2017-08-14T00:57:57.857Z,68.80
2017-08-14T01:00:33.254Z,69.20
2017-08-14T01:03:07.885Z,69.20
2017-08-14T01:05:42.549Z,69.10
2017-08-14T01:08:17.161Z,69.20
2017-08-14T01:10:51.847Z,69.40
2017-08-14T01:13:27.098Z,69.50
2017-08-14T01:16:02.554Z,69.70
2017-08-14T01:18:37.290Z,69.60
2017-08-14T01:21:11.934Z,69.50
2017-08-14T01:23:46.446Z,69.40
2017-08-14T01:26:21.865Z,68.90
2017-08-14T01:28:56.425Z,69.20
2017-08-14T01:31:31.002Z,69.20
2017-08-14T01:34:05.430Z,68.90
2017-08-14T01:36:40.059Z,68.80
2017-08-14T01:39:14.689Z,68.80
2017-08-14T01:41:49.130Z,68.80
2017-08-14T01:44:23.750Z,68.60
2017-08-14T01:46:58.282Z,68.70
2017-08-14T01:49:32.841Z,68.50
2017-08-14T01:52:07.502Z,68.40
2017-08-14T01:54:41.969Z,68.30
2017-08-14T01:57:16.645Z,68.10
2017-08-14T01:59:51.401Z,68.00
2017-08-14T02:02:26.058Z,68.10
2017-08-14T02:05:00.521Z,68.10
2017-08-14T02:07:35.072Z,68.10
2017-08-14T02:10:16.221Z,67.90
2017-08-14T02:12:50.770Z,67.90
2017-08-14T02:15:25.425Z,67.60
2017-08-14T02:18:00.029Z,67.70
2017-08-14T02:20:34.654Z,67.70
2017-08-14T02:23:09.122Z,67.40
2017-08-14T02:25:43.676Z,67.50
2017-08-14T02:28:18.249Z,67.40
2017-08-14T02:30:52.901Z,67.30
2017-08-14T02:33:27.470Z,67.30
2017-08-14T02:36:02.097Z,67.50
2017-08-14T02:38:36.637Z,67.50
2017-08-14T02:41:11.293Z,67.40
2017-08-14T02:43:45.769Z,67.50
2017-08-14T02:46:20.385Z,67.50
2017-08-14T02:48:54.850Z,67.70
2017-08-14T02:51:29.350Z,67.90
2017-08-14T02:54:03.919Z,67.90
2017-08-14T02:56:38.565Z,67.90
2017-08-14T02:59:13.025Z,68.00
2017-08-14T03:01:48.345Z,68.00
2017-08-14T03:04:22.956Z,68.00
2017-08-14T03:06:57.485Z,68.10
2017-08-14T03:09:31.962Z,67.90
2017-08-14T03:12:06.522Z,68.00
2017-08-14T03:14:41.129Z,68.30
2017-08-14T03:17:16.086Z,68.60
2017-08-14T03:19:50.678Z,68.80
2017-08-14T03:22:25.301Z,69.10
2017-08-14T03:24:59.845Z,69.40
2017-08-14T03:27:34.405Z,69.40
2017-08-14T03:30:15.971Z,69.60
2017-08-14T03:32:50.414Z,69.80
2017-08-14T03:35:24.970Z,70.00
2017-08-14T03:37:59.550Z,70.10
2017-08-14T03:43:18.827Z,70.30
2017-08-14T03:45:53.362Z,70.40
2017-08-14T03:48:27.991Z,70.50
2017-08-14T03:51:02.551Z,70.70
2017-08-14T03:53:37.013Z,70.80
2017-08-14T03:56:11.591Z,70.80
2017-08-14T03:58:46.065Z,71.10
2017-08-14T04:01:20.629Z,71.10
2017-08-14T04:03:55.144Z,71.20
2017-08-14T04:06:30.625Z,71.40
2017-08-14T04:09:04.454Z,71.40
2017-08-14T04:11:39.017Z,71.50
2017-08-14T04:14:13.665Z,71.70
2017-08-14T04:16:48.262Z,71.70
2017-08-14T04:19:23.501Z,72.30
2017-08-14T04:21:57.977Z,71.50
2017-08-14T04:24:32.249Z,71.50
2017-08-14T04:27:06.988Z,71.50
2017-08-14T04:29:41.469Z,71.40
2017-08-14T04:32:16.065Z,71.10
2017-08-14T04:34:50.613Z,70.90
2017-08-14T04:37:25.190Z,70.90
2017-08-14T04:39:59.609Z,70.90
2017-08-14T04:42:34.205Z,70.90
2017-08-14T04:45:15.557Z,70.80
2017-08-14T04:47:50.102Z,70.70
2017-08-14T04:50:24.685Z,70.70
2017-08-14T04:52:59.322Z,70.40
2017-08-14T04:55:33.953Z,70.20
2017-08-14T04:58:08.611Z,69.90
2017-08-14T05:00:43.253Z,69.50
2017-08-14T05:03:17.677Z,69.30
2017-08-14T05:05:52.221Z,69.20
2017-08-14T05:08:26.762Z,69.30
2017-08-14T05:11:01.357Z,68.80
2017-08-14T05:13:35.925Z,68.80
2017-08-14T05:16:10.497Z,68.70
2017-08-14T05:18:45.040Z,68.50
2017-08-14T05:21:19.577Z,68.50
2017-08-14T05:23:54.145Z,68.50
2017-08-14T05:26:28.794Z,68.00
2017-08-14T05:29:03.337Z,67.80
2017-08-14T05:31:37.882Z,68.00
2017-08-14T05:34:12.346Z,67.80
2017-08-14T05:36:46.914Z,67.70
2017-08-14T05:39:21.542Z,67.60
2017-08-14T05:41:56.079Z,67.40
2017-08-14T05:44:30.574Z,67.10
2017-08-14T05:47:05.117Z,67.00
2017-08-14T05:49:39.563Z,66.70
2017-08-14T05:52:14.154Z,66.70
2017-08-14T05:54:48.749Z,66.60
2017-08-14T05:57:23.326Z,66.20
2017-08-14T05:59:58.520Z,65.90
2017-08-14T06:02:32.954Z,65.80
2017-08-14T06:05:16.119Z,65.40
2017-08-14T06:07:50.541Z,65.30
2017-08-14T06:10:25.169Z,65.00
2017-08-14T06:12:59.802Z,65.10
2017-08-14T06:15:34.021Z,65.10
2017-08-14T06:18:08.675Z,64.80
2017-08-14T06:20:43.358Z,64.80
2017-08-14T06:23:17.797Z,64.70
2017-08-14T06:25:52.421Z,64.50
2017-08-14T06:28:27.002Z,64.20
2017-08-14T06:31:01.508Z,64.10
2017-08-14T06:33:36.123Z,64.20
2017-08-14T06:36:10.585Z,64.00
2017-08-14T06:38:45.101Z,63.80
2017-08-14T06:41:19.634Z,63.10
2017-08-14T06:43:54.082Z,63.00
2017-08-14T06:46:28.673Z,62.60
2017-08-14T06:49:03.241Z,62.10
2017-08-14T06:51:37.843Z,61.90
2017-08-14T06:54:12.246Z,61.50
2017-08-14T06:56:46.842Z,61.30
2017-08-14T06:59:21.304Z,61.30
2017-08-14T07:01:55.886Z,60.70
2017-08-14T07:04:30.455Z,60.40
2017-08-14T07:07:05.021Z,60.10
2017-08-14T07:09:39.447Z,60.00
2017-08-14T07:12:14.033Z,59.70
2017-08-14T07:14:48.501Z,59.30
2017-08-14T07:17:23.013Z,58.80
2017-08-14T07:19:57.439Z,58.50
2017-08-14T07:22:32.061Z,58.20
2017-08-14T07:25:15.181Z,57.90
2017-08-14T07:27:49.734Z,57.30
2017-08-14T07:30:24.268Z,56.50
2017-08-14T07:32:58.710Z,56.30
2017-08-14T07:35:34.029Z,55.30
2017-08-14T07:38:09.457Z,54.70
2017-08-14T07:40:43.941Z,54.40
2017-08-14T07:43:18.526Z,53.50
2017-08-14T07:45:53.621Z,53.20
2017-08-14T07:48:28.113Z,52.10
2017-08-14T07:51:03.281Z,51.50
2017-08-14T07:53:37.730Z,50.20
2017-08-14T07:56:12.309Z,49.30
2017-08-14T07:58:46.778Z,49.10
2017-08-14T08:01:21.386Z,48.50
2017-08-14T08:03:55.883Z,48.10
2017-08-14T08:06:30.539Z,47.30
2017-08-14T08:09:04.829Z,45.30
2017-08-14T08:11:39.330Z,45.20
2017-08-14T08:14:13.914Z,45.00
2017-08-14T08:16:48.365Z,44.50
2017-08-14T08:19:22.999Z,43.30
2017-08-14T08:21:57.579Z,43.00
2017-08-14T08:24:32.262Z,43.30
2017-08-14T08:27:06.833Z,42.40
2017-08-14T08:29:41.449Z,41.60
2017-08-14T08:32:16.005Z,40.60
2017-08-14T08:34:50.581Z,40.40
2017-08-14T08:37:25.122Z,40.30
2017-08-14T08:39:59.701Z,41.10
2017-08-14T08:42:35.027Z,40.40
2017-08-14T08:45:17.322Z,40.30
2017-08-14T08:47:51.723Z,39.60
2017-08-14T08:50:26.193Z,39.20
2017-08-14T08:53:00.768Z,38.80
2017-08-14T08:55:35.373Z,38.60
2017-08-14T08:58:10.016Z,38.70
2017-08-14T09:00:44.653Z,38.80
2017-08-14T09:03:19.218Z,39.20
2017-08-14T09:05:53.761Z,38.90
2017-08-14T09:08:28.263Z,38.60
2017-08-14T09:11:02.846Z,38.90
2017-08-14T09:13:37.498Z,38.10
2017-08-14T09:16:13.641Z,37.70
2017-08-14T09:18:48.310Z,38.20
2017-08-14T09:21:22.942Z,38.40
2017-08-14T09:23:57.523Z,38.30
2017-08-14T09:26:32.058Z,38.50
2017-08-14T09:29:06.581Z,38.70
2017-08-14T09:31:41.190Z,38.60
2017-08-14T09:34:15.749Z,38.00
2017-08-14T09:36:51.058Z,36.50
2017-08-14T09:39:25.534Z,36.50
2017-08-14T09:42:00.142Z,36.40
2017-08-14T09:44:34.566Z,35.40
2017-08-14T09:47:09.181Z,35.30
2017-08-14T09:49:43.714Z,35.90
2017-08-14T09:52:18.259Z,35.70
2017-08-14T09:54:52.671Z,35.20
2017-08-14T09:57:27.246Z,35.30
2017-08-14T10:00:01.836Z,35.10
2017-08-14T10:02:36.425Z,34.60
2017-08-14T10:05:33.625Z,33.80
2017-08-14T10:08:08.077Z,33.50
2017-08-14T10:10:42.620Z,33.50
2017-08-14T10:13:17.449Z,32.90
2017-08-14T10:15:56.642Z,33.20
2017-08-14T10:18:31.813Z,33.00
2017-08-14T10:21:06.354Z,32.80
2017-08-14T10:23:41.070Z,32.80
2017-08-14T10:26:15.624Z,33.40
2017-08-14T10:28:50.296Z,33.10
2017-08-14T10:31:24.918Z,32.80
2017-08-14T10:33:59.405Z,32.80
2017-08-14T10:36:33.983Z,32.70
2017-08-14T10:39:08.568Z,32.30
2017-08-14T10:41:44.001Z,31.00
2017-08-14T10:44:18.478Z,31.00
2017-08-14T10:46:53.053Z,30.90
2017-08-14T10:49:27.495Z,30.90
2017-08-14T10:52:02.173Z,31.70
2017-08-14T10:54:36.930Z,31.40
2017-08-14T10:57:11.450Z,31.20
2017-08-14T10:59:46.061Z,30.70
2017-08-14T11:02:21.356Z,30.50
2017-08-14T11:04:55.793Z,30.50
2017-08-14T11:07:30.462Z,30.30
2017-08-14T11:12:53.285Z,30.00
2017-08-14T11:15:27.859Z,30.10
2017-08-14T11:18:02.462Z,30.20
2017-08-14T11:20:37.026Z,30.10
2017-08-14T11:23:11.571Z,29.90
2017-08-14T11:25:46.825Z,29.40
2017-08-14T11:28:21.266Z,29.40
2017-08-14T11:30:55.829Z,29.10
2017-08-14T11:33:30.337Z,28.60
2017-08-14T11:36:04.929Z,28.90
2017-08-14T11:38:39.463Z,28.60
2017-08-14T11:41:14.069Z,28.40
2017-08-14T11:43:48.521Z,27.90
2017-08-14T11:46:23.127Z,29.00
2017-08-14T11:48:58.477Z,29.10
2017-08-14T11:51:33.175Z,29.10
2017-08-14T11:54:07.820Z,28.90
2017-08-14T11:56:42.390Z,28.70
2017-08-14T11:59:16.966Z,28.40
2017-08-14T12:01:51.517Z,28.80
2017-08-14T12:04:26.069Z,28.80
2017-08-14T12:07:00.693Z,28.60
2017-08-14T12:09:35.242Z,28.80
2017-08-14T12:12:09.781Z,28.50
2017-08-14T12:14:44.354Z,28.30
2017-08-14T12:17:18.920Z,29.30
2017-08-14T12:19:53.462Z,30.10
2017-08-14T12:22:28.057Z,30.60
2017-08-14T12:25:02.670Z,30.90
2017-08-14T12:27:37.193Z,31.70
2017-08-14T12:30:23.773Z,32.40
2017-08-14T12:32:58.768Z,32.20
2017-08-14T12:35:34.770Z,31.60
2017-08-14T12:38:09.590Z,31.70
2017-08-14T12:40:44.108Z,31.40
2017-08-14T12:43:18.646Z,31.80
2017-08-14T12:45:53.273Z,31.60
2017-08-14T12:48:27.798Z,30.70
2017-08-14T12:51:02.374Z,30.50
2017-08-14T12:53:36.846Z,30.60
2017-08-14T12:56:11.422Z,29.80
2017-08-14T12:58:45.957Z,29.70
2017-08-14T13:01:20.469Z,29.60
2017-08-14T13:03:55.009Z,29.70
2017-08-14T13:06:29.559Z,29.50
2017-08-14T13:09:03.145Z,29.00
2017-08-14T13:11:37.654Z,28.60
2017-08-14T13:14:12.164Z,29.50
2017-08-14T13:16:46.786Z,30.20
2017-08-14T13:19:22.154Z,28.50
2017-08-14T13:21:56.586Z,28.50
2017-08-14T13:24:31.311Z,29.00
2017-08-14T13:27:06.569Z,29.10
2017-08-14T13:29:41.229Z,29.50
2017-08-14T13:32:15.770Z,30.00
2017-08-14T13:34:51.201Z,29.90
2017-08-14T13:37:25.893Z,29.90
2017-08-14T13:40:00.534Z,30.10
2017-08-14T13:42:35.093Z,30.40
2017-08-14T13:45:14.962Z,30.90
2017-08-14T13:47:50.354Z,31.90
2017-08-14T13:53:15.466Z,31.50
2017-08-14T13:55:50.074Z,31.50
2017-08-14T13:58:24.665Z,32.00
2017-08-14T14:00:59.206Z,31.80
2017-08-14T14:03:33.618Z,31.10
2017-08-14T14:06:08.173Z,31.30
2017-08-14T14:08:42.642Z,31.70
2017-08-14T14:11:17.229Z,31.90
2017-08-14T14:13:51.646Z,31.80
2017-08-14T14:16:27.197Z,31.40
2017-08-14T14:19:02.005Z,31.60
2017-08-14T14:21:36.619Z,30.90
2017-08-14T14:24:11.160Z,31.10
2017-08-14T14:26:45.817Z,30.80
2017-08-14T14:29:20.437Z,31.60
2017-08-14T14:31:55.006Z,31.60
2017-08-14T14:34:29.581Z,31.80
2017-08-14T14:37:04.167Z,32.00
2017-08-14T14:39:39.768Z,31.90
2017-08-14T14:42:14.383Z,32.30
2017-08-14T14:44:48.947Z,31.80
2017-08-14T14:47:24.510Z,32.10
2017-08-14T14:49:59.065Z,32.10
2017-08-14T14:52:33.666Z,31.90
2017-08-14T14:55:18.869Z,31.80
2017-08-14T14:57:53.422Z,31.50
2017-08-14T15:00:27.982Z,32.20
2017-08-14T15:03:02.529Z,32.70
2017-08-14T15:05:37.115Z,32.30
2017-08-14T15:08:11.706Z,32.90
2017-08-14T15:10:46.309Z,32.90
2017-08-14T15:13:20.954Z,32.60
2017-08-14T15:15:55.461Z,32.40
2017-08-14T15:18:30.769Z,32.80
2017-08-14T15:21:05.237Z,32.80
2017-08-14T15:23:39.814Z,33.20
2017-08-14T15:26:14.357Z,32.90
2017-08-14T15:28:48.961Z,32.80
2017-08-14T15:31:23.520Z,33.20
2017-08-14T15:33:58.834Z,33.00
2017-08-14T15:36:33.474Z,33.00
2017-08-14T15:39:08.025Z,33.30
2017-08-14T15:41:43.331Z,33.70
2017-08-14T15:44:17.970Z,33.70
2017-08-14T15:46:52.637Z,33.90
2017-08-14T15:49:41.677Z,33.80
2017-08-14T15:52:16.234Z,33.60
2017-08-14T15:54:51.246Z,33.70
2017-08-14T15:57:25.807Z,33.40
2017-08-14T16:00:00.425Z,33.50
2017-08-14T16:02:35.041Z,33.50
2017-08-14T16:07:56.411Z,34.10
2017-08-14T16:10:30.954Z,34.50
2017-08-14T16:13:05.506Z,34.30
2017-08-14T16:15:45.323Z,35.00
2017-08-14T16:18:20.754Z,35.20
2017-08-14T16:20:55.278Z,35.20
2017-08-14T16:23:29.794Z,34.90
2017-08-14T16:26:04.281Z,35.30
2017-08-14T16:28:38.958Z,35.30
2017-08-14T16:31:13.554Z,35.90
2017-08-14T16:33:48.109Z,35.80
2017-08-14T16:36:22.863Z,36.20
2017-08-14T16:38:57.458Z,36.30
2017-08-14T16:41:32.017Z,36.50
2017-08-14T16:44:06.629Z,36.40
2017-08-14T16:46:41.141Z,35.90
2017-08-14T16:49:15.701Z,36.00
2017-08-14T16:51:50.329Z,36.00
2017-08-14T16:54:24.801Z,36.10
2017-08-14T16:56:59.366Z,36.70
2017-08-14T16:59:33.930Z,36.80
2017-08-14T17:02:08.555Z,37.00
2017-08-14T17:04:43.101Z,36.90
2017-08-14T17:07:17.654Z,37.10
2017-08-14T17:09:52.261Z,36.90
2017-08-14T17:12:29.382Z,37.10
2017-08-14T17:15:03.974Z,37.10
2017-08-14T17:17:38.538Z,37.40
2017-08-14T17:20:26.950Z,37.20
2017-08-14T17:23:01.385Z,37.40
2017-08-14T17:25:35.924Z,37.60
2017-08-14T17:28:10.428Z,37.70
2017-08-14T17:30:44.985Z,38.00
2017-08-14T17:33:19.659Z,38.20
2017-08-14T17:35:54.325Z,38.00
2017-08-14T17:38:28.920Z,37.90
2017-08-14T17:41:03.434Z,38.20
2017-08-14T17:43:38.058Z,38.90
2017-08-14T17:46:12.622Z,38.20
2017-08-14T17:48:47.237Z,36.90
2017-08-14T17:51:21.691Z,37.00
2017-08-14T17:53:56.306Z,36.80
2017-08-14T17:56:30.847Z,37.10
2017-08-14T17:59:05.345Z,37.40
2017-08-14T18:01:39.926Z,37.60
2017-08-14T18:04:14.466Z,37.70
2017-08-14T18:06:49.077Z,38.10
2017-08-14T18:09:23.653Z,38.20
2017-08-14T18:11:58.285Z,38.30
2017-08-14T18:14:32.736Z,38.90
2017-08-14T18:17:07.225Z,39.10
2017-08-14T18:19:41.791Z,39.40
2017-08-14T18:22:16.315Z,39.60
2017-08-14T18:24:50.754Z,40.20
2017-08-14T18:27:25.350Z,39.80
2017-08-14T18:29:59.847Z,39.90
2017-08-14T18:32:35.599Z,40.20
2017-08-14T18:35:18.682Z,40.00
2017-08-14T18:37:53.346Z,40.00
2017-08-14T18:40:28.030Z,40.60
2017-08-14T18:43:02.553Z,40.40
2017-08-14T18:45:37.131Z,40.40
2017-08-14T18:48:11.741Z,40.60
2017-08-14T18:50:46.441Z,41.30
2017-08-14T18:53:20.989Z,42.70
2017-08-14T18:56:03.095Z,43.20
2017-08-14T18:58:38.397Z,44.70
2017-08-14T19:01:12.862Z,44.70
2017-08-14T19:03:47.478Z,45.20
2017-08-14T19:06:22.078Z,45.60
2017-08-14T19:08:57.770Z,46.10
2017-08-14T19:11:31.200Z,46.30
2017-08-14T19:14:05.792Z,46.80
2017-08-14T19:16:40.404Z,46.60
2017-08-14T19:19:15.354Z,46.70
2017-08-14T19:21:49.896Z,47.10
2017-08-14T19:24:24.537Z,47.30
2017-08-14T19:26:59.110Z,47.50
2017-08-14T19:29:33.718Z,47.70
2017-08-14T19:32:10.077Z,48.60
2017-08-14T19:34:44.513Z,48.60
2017-08-14T19:37:19.066Z,48.90
2017-08-14T19:39:54.457Z,49.00
2017-08-14T19:42:30.566Z,49.10
2017-08-14T19:45:05.326Z,49.00
2017-08-14T19:47:41.072Z,49.20
2017-08-14T19:50:29.510Z,49.00
2017-08-14T19:53:04.623Z,48.90
2017-08-14T19:55:39.187Z,48.80
2017-08-14T19:58:13.902Z,48.50
2017-08-14T20:00:48.421Z,48.80
2017-08-14T20:03:23.783Z,49.00
2017-08-14T20:05:58.422Z,49.30
2017-08-14T20:08:32.957Z,49.30
2017-08-14T20:11:07.566Z,49.50
2017-08-14T20:13:42.133Z,49.90
2017-08-14T20:16:16.730Z,50.00
2017-08-14T20:18:52.389Z,49.80
2017-08-14T20:21:27.635Z,50.20
2017-08-14T20:24:02.266Z,50.60
2017-08-14T20:26:36.882Z,50.30
2017-08-14T20:29:11.297Z,49.90
2017-08-14T20:31:45.900Z,51.00
2017-08-14T20:34:20.411Z,51.80
2017-08-14T20:36:55.009Z,52.20
2017-08-14T20:39:36.421Z,52.20
2017-08-14T20:42:10.888Z,52.20
2017-08-14T20:44:45.669Z,52.20
2017-08-14T20:47:20.299Z,53.00
2017-08-14T20:49:54.875Z,53.40
2017-08-14T20:52:29.427Z,53.80
2017-08-14T20:55:05.176Z,54.10
2017-08-14T20:57:42.400Z,54.60
2017-08-14T21:00:21.330Z,55.00
2017-08-14T21:02:55.902Z,55.10
2017-08-14T21:08:25.927Z,55.20
2017-08-14T21:11:00.506Z,55.10
2017-08-14T21:13:35.156Z,55.20
2017-08-14T21:16:10.495Z,56.20
2017-08-14T21:18:44.960Z,56.00
2017-08-14T21:21:19.509Z,55.70
2017-08-14T21:23:54.806Z,55.90
2017-08-14T21:26:32.235Z,56.00
2017-08-14T21:29:06.845Z,56.00
2017-08-14T21:31:41.365Z,55.50
2017-08-14T21:34:15.938Z,55.70
2017-08-14T21:36:50.542Z,55.10
2017-08-14T21:39:25.029Z,54.90
2017-08-14T21:41:59.566Z,55.20
2017-08-14T21:44:34.157Z,55.40
2017-08-14T21:47:08.772Z,55.40
2017-08-14T21:49:43.339Z,55.00
2017-08-14T21:52:17.898Z,55.20
2017-08-14T21:54:52.553Z,54.70
2017-08-14T21:57:26.913Z,54.70
2017-08-14T22:00:01.567Z,54.90
2017-08-14T22:02:36.214Z,54.80
2017-08-14T22:08:06.285Z,55.20
2017-08-14T22:10:40.741Z,55.90
2017-08-14T22:13:15.381Z,56.00
2017-08-14T22:15:49.984Z,56.20
2017-08-14T22:18:24.489Z,56.80
2017-08-14T22:20:59.053Z,56.60
2017-08-14T22:23:33.605Z,56.40
2017-08-14T22:26:09.662Z,57.10
2017-08-14T22:28:44.250Z,57.10
2017-08-14T22:31:18.799Z,56.70
2017-08-14T22:33:53.342Z,56.60
2017-08-14T22:36:27.850Z,57.00
2017-08-14T22:39:02.357Z,57.30
2017-08-14T22:41:36.918Z,57.20
2017-08-14T22:44:11.386Z,57.50
2017-08-14T22:46:45.966Z,57.90
2017-08-14T22:49:20.536Z,58.10
2017-08-14T22:51:55.115Z,58.00
2017-08-14T22:54:29.742Z,57.90
2017-08-14T22:57:04.449Z,57.80
2017-08-14T22:59:38.918Z,57.60
2017-08-14T23:02:13.561Z,57.50
2017-08-14T23:04:50.385Z,57.30
2017-08-14T23:07:25.849Z,57.40
2017-08-14T23:10:00.313Z,57.40
2017-08-14T23:12:34.904Z,57.50
2017-08-14T23:17:51.390Z,57.80
2017-08-14T23:20:32.381Z,58.00
2017-08-14T23:23:06.814Z,58.00
2017-08-14T23:25:42.162Z,57.70
2017-08-14T23:28:16.814Z,57.70
2017-08-14T23:30:51.313Z,58.10
2017-08-14T23:33:25.888Z,58.20
2017-08-14T23:36:04.541Z,58.40
2017-08-14T23:38:39.184Z,58.30
2017-08-14T23:41:13.688Z,58.10
2017-08-14T23:43:48.182Z,58.20
2017-08-14T23:46:22.765Z,58.30
2017-08-14T23:48:57.252Z,58.50
2017-08-14T23:51:31.813Z,58.60
2017-08-14T23:54:06.551Z,58.50
2017-08-14T23:56:41.087Z,58.50
2017-08-14T23:59:16.293Z,58.70
